Time;durP1;ratioP1;P1;durP2;ratioP2;P2;SDS_P1;SDS_P2;PMS_P1;PMS_P2;Temp;Humidity;BMP_temperature;BMP_pressure;BME280_temperature;BME280_humidity;BME280_pressure;Samples;Min_cycle;Max_cycle;Signal;HPM_P1;HPM_P2
2022/12/02 00:00:22;;;;;;;39.78;19.30;;;4.80;99.90;;;;;;5029514;28;20546;-54
2022/12/02 00:02:48;;;;;;;43.40;19.00;;;5.30;99.90;;;;;;5030708;28;20109;-49
2022/12/02 00:05:14;;;;;;;41.53;18.73;;;;;;;;;;5029798;28;20022;-41
2022/12/02 00:07:40;;;;;;;42.90;19.75;;;7.80;99.90;;;;;;5030458;28;20037;-44
2022/12/02 00:10:29;;;;;;;39.78;18.35;;;8.70;99.90;;;;;;5028600;28;20108;-49
2022/12/02 00:13:09;;;;;;;40.75;19.58;;;8.90;99.90;;;;;;5030544;28;20045;-47
2022/12/02 00:15:40;;;;;;;44.38;19.38;;;8.60;99.90;;;;;;5028347;28;20038;-44
2022/12/02 00:18:11;;;;;;;46.10;21.25;;;5.70;99.90;;;;;;5030584;28;20043;-46
2022/12/02 00:20:38;;;;;;;44.90;19.92;;;8.80;99.90;;;;;;5027860;28;20440;-41
2022/12/02 00:23:04;;;;;;;45.58;20.35;;;6.50;99.90;;;;;;5035550;28;20017;-51
2022/12/02 00:25:30;;;;;;;42.17;18.83;;;5.60;99.90;;;;;;5031160;28;20033;-46
2022/12/02 00:27:55;;;;;;;48.90;20.80;;;7.80;99.90;;;;;;5035793;28;20033;-52
2022/12/02 00:30:21;;;;;;;46.47;20.58;;;8.70;99.90;;;;;;5031141;28;20487;-48
2022/12/02 00:32:47;;;;;;;43.85;18.90;;;9.10;99.90;;;;;;5029336;28;20049;-48
2022/12/02 00:35:14;;;;;;;47.30;20.52;;;8.50;99.90;;;;;;5043018;28;20043;-52
2022/12/02 00:37:39;;;;;;;47.72;21.60;;;8.10;99.90;;;;;;5034060;28;20048;-53
2022/12/02 00:40:05;;;;;;;46.13;19.95;;;9.20;99.90;;;;;;5036220;28;20412;-48
2022/12/02 00:42:31;;;;;;;50.00;21.23;;;9.10;99.90;;;;;;5028902;28;20025;-42
2022/12/02 00:47:41;;;;;;;46.70;20.35;;;5.00;99.90;;;;;;5022760;28;20071;-41
2022/12/02 00:50:07;;;;;;;50.47;21.20;;;8.70;99.90;;;;;;5029726;28;20439;-44
2022/12/02 00:52:33;;;;;;;48.10;20.10;;;6.70;99.90;;;;;;5030149;28;20026;-41
2022/12/02 00:54:58;;;;;;;47.78;20.35;;;7.70;99.90;;;;;;5029587;28;20057;-46
2022/12/02 00:57:24;;;;;;;55.92;21.05;;;5.80;99.90;;;;;;5028769;28;20029;-41
2022/12/02 00:59:49;;;;;;;52.85;21.38;;;7.50;99.90;;;;;;5044508;28;20477;-45
2022/12/02 01:02:15;;;;;;;51.70;21.27;;;8.00;99.90;;;;;;5036118;28;20064;-42
2022/12/02 01:04:41;;;;;;;51.97;20.83;;;7.60;99.90;;;;;;5025487;28;20029;-41
2022/12/02 01:07:06;;;;;;;49.72;19.58;;;7.50;99.90;;;;;;5028278;28;20030;-47
2022/12/02 01:09:32;;;;;;;52.10;20.17;;;7.30;99.90;;;;;;5035490;28;20018;-48
2022/12/02 01:11:58;;;;;;;47.75;20.48;;;;;;;;;;5036745;28;20455;-42
2022/12/02 01:14:24;;;;;;;48.45;20.23;;;8.40;99.90;;;;;;5029680;28;20017;-46
2022/12/02 01:16:50;;;;;;;54.72;21.10;;;;;;;;;;5029176;28;20025;-41
2022/12/02 01:19:15;;;;;;;44.08;19.38;;;8.60;99.90;;;;;;5039914;28;20473;-43
2022/12/02 01:21:41;;;;;;;55.00;21.05;;;5.00;99.90;;;;;;5029020;28;20063;-43
2022/12/02 01:24:07;;;;;;;50.85;19.10;;;7.40;99.90;;;;;;5025644;28;20107;-42
2022/12/02 01:26:32;;;;;;;52.05;20.80;;;5.80;99.90;;;;;;5028103;28;20034;-44
2022/12/02 01:28:58;;;;;;;50.75;20.00;;;8.60;99.90;;;;;;5029497;28;20022;-43
2022/12/02 01:31:23;;;;;;;51.03;20.10;;;5.00;99.90;;;;;;5029715;28;20056;-44
2022/12/02 01:33:49;;;;;;;51.40;20.60;;;8.50;99.90;;;;;;5029639;28;20029;-41
2022/12/02 01:36:15;;;;;;;40.97;18.48;;;;;;;;;;5029414;28;20033;-41
2022/12/02 01:38:41;;;;;;;46.15;18.73;;;;;;;;;;5029377;28;20017;-43
2022/12/02 01:41:07;;;;;;;47.78;18.75;;;8.10;99.90;;;;;;5029270;28;20647;-42
2022/12/02 01:43:33;;;;;;;45.63;18.30;;;;;;;;;;5029711;28;20051;-42
2022/12/02 01:45:59;;;;;;;39.97;17.13;;;7.80;99.90;;;;;;5029426;28;20026;-45
2022/12/02 01:48:24;;;;;;;50.47;19.20;;;8.40;99.90;;;;;;5031588;28;20025;-45
2022/12/02 01:50:50;;;;;;;42.35;18.92;;;7.70;99.90;;;;;;5031041;28;20033;-42
2022/12/02 01:53:16;;;;;;;51.25;20.08;;;8.30;99.90;;;;;;5035120;28;20033;-47
2022/12/02 01:55:42;;;;;;;52.53;19.80;;;8.40;99.90;;;;;;5029045;28;20396;-44
2022/12/02 01:58:10;;;;;;;51.28;19.77;;;7.10;99.90;;;;;;5027970;28;20060;-44
2022/12/02 02:00:37;;;;;;;47.63;17.88;;;8.10;99.90;;;;;;5030495;28;20033;-48
2022/12/02 02:03:03;;;;;;;53.13;19.73;;;5.60;99.90;;;;;;5034607;28;20021;-40
2022/12/02 02:05:31;;;;;;;51.38;19.42;;;5.30;99.90;;;;;;5029480;28;20018;-51
2022/12/02 02:08:02;;;;;;;45.65;17.33;;;8.20;99.90;;;;;;5027122;28;20064;-53
2022/12/02 02:10:28;;;;;;;45.38;17.45;;;7.10;99.90;;;;;;5032545;28;20131;-41
2022/12/02 02:12:54;;;;;;;49.13;17.30;;;7.30;99.90;;;;;;5031048;28;20022;-50
2022/12/02 02:15:21;;;;;;;41.95;16.52;;;7.20;99.90;;;;;;5032161;28;20095;-42
2022/12/02 02:17:47;;;;;;;38.65;15.32;;;8.90;99.90;;;;;;5033487;28;20202;-47
2022/12/02 02:20:20;;;;;;;47.50;17.58;;;4.60;99.90;;;;;;5033017;28;20480;-45
2022/12/02 02:22:57;;;;;;;44.40;16.50;;;4.60;99.90;;;;;;5030404;28;20028;-43
2022/12/02 02:25:23;;;;;;;41.90;16.10;;;9.10;99.90;;;;;;5031367;28;20021;-55
2022/12/02 02:27:55;;;;;;;40.20;15.80;;;7.80;99.90;;;;;;5032483;28;20079;-52
2022/12/02 02:30:21;;;;;;;43.22;18.02;;;8.30;99.90;;;;;;5038178;28;20033;-51
2022/12/02 02:32:48;;;;;;;43.17;15.80;;;4.80;99.90;;;;;;5032249;28;20022;-52
2022/12/02 02:35:14;;;;;;;41.72;16.10;;;;;;;;;;5033682;28;20079;-54
2022/12/02 02:37:41;;;;;;;44.78;17.20;;;;;;;;;;5033402;28;20057;-54
2022/12/02 02:40:07;;;;;;;47.92;17.63;;;7.30;99.90;;;;;;5031464;28;20029;-56
2022/12/02 02:42:33;;;;;;;43.75;16.42;;;5.80;99.90;;;;;;5040729;28;20032;-48
2022/12/02 02:45:00;;;;;;;44.08;17.25;;;7.20;99.90;;;;;;5039197;28;20037;-56
2022/12/02 02:47:25;;;;;;;46.20;17.42;;;6.70;99.90;;;;;;5033287;28;20025;-48
2022/12/02 02:49:51;;;;;;;45.20;15.60;;;7.30;99.90;;;;;;5030718;28;20025;-54
2022/12/02 02:52:17;;;;;;;44.42;16.63;;;7.10;99.90;;;;;;5033190;28;20025;-44
2022/12/02 02:54:42;;;;;;;45.47;16.38;;;5.00;99.90;;;;;;5032716;28;20879;-55
2022/12/02 02:57:08;;;;;;;44.92;16.85;;;7.00;99.90;;;;;;5033178;28;20029;-53
2022/12/02 02:59:36;;;;;;;46.55;18.13;;;7.40;99.90;;;;;;5033202;28;20477;-51
2022/12/02 03:02:06;;;;;;;44.58;16.63;;;7.90;99.90;;;;;;5033291;28;20092;-47
2022/12/02 03:04:32;;;;;;;37.67;15.00;;;7.70;99.90;;;;;;5033086;28;20033;-57
2022/12/02 03:06:58;;;;;;;39.42;15.73;;;7.70;99.90;;;;;;5036508;28;20021;-49
2022/12/02 03:09:24;;;;;;;45.58;16.45;;;6.30;99.90;;;;;;5044757;28;20021;-58
2022/12/02 03:11:52;;;;;;;46.10;16.67;;;6.90;99.90;;;;;;5044443;28;20093;-54
2022/12/02 03:14:19;;;;;;;39.30;15.93;;;7.90;99.90;;;;;;5044488;28;20071;-51
2022/12/02 03:16:45;;;;;;;39.92;15.52;;;;;;;;;;5043174;28;20392;-41
2022/12/02 03:19:11;;;;;;;39.60;16.08;;;6.90;99.90;;;;;;5035226;28;20017;-57
2022/12/02 03:21:37;;;;;;;36.70;15.35;;;7.00;99.90;;;;;;5033061;28;20041;-54
2022/12/02 03:24:04;;;;;;;36.58;15.82;;;6.90;99.90;;;;;;5032905;28;20029;-52
2022/12/02 03:26:31;;;;;;;37.25;14.88;;;7.90;99.90;;;;;;5032242;28;20075;-54
2022/12/02 03:28:58;;;;;;;33.78;13.10;;;7.70;99.90;;;;;;5032703;28;20041;-54
2022/12/02 03:31:25;;;;;;;35.70;15.63;;;6.90;99.90;;;;;;5032601;28;20108;-50
2022/12/02 03:33:51;;;;;;;36.35;15.20;;;6.30;99.90;;;;;;5032609;28;20096;-52
2022/12/02 03:36:17;;;;;;;36.38;15.00;;;7.90;99.90;;;;;;5032560;28;20473;-58
2022/12/02 03:38:43;;;;;;;35.38;14.60;;;7.30;99.90;;;;;;5032310;28;20037;-48
2022/12/02 03:41:10;;;;;;;33.20;14.80;;;6.70;99.90;;;;;;5032461;28;20033;-56
2022/12/02 03:43:35;;;;;;;32.38;14.90;;;6.70;99.90;;;;;;5032435;28;20052;-49
2022/12/02 03:46:02;;;;;;;33.20;13.82;;;8.40;99.90;;;;;;5032428;28;20484;-53
2022/12/02 03:48:28;;;;;;;32.97;14.20;;;7.80;99.90;;;;;;5032168;28;20399;-54
2022/12/02 03:50:56;;;;;;;29.45;13.18;;;7.90;99.90;;;;;;5032471;28;20025;-53
2022/12/02 03:53:22;;;;;;;31.30;13.98;;;;;;;;;;5030934;28;20110;-48
2022/12/02 03:55:48;;;;;;;34.55;14.02;;;7.30;99.90;;;;;;5031730;28;20049;-44
2022/12/02 03:58:14;;;;;;;31.63;14.38;;;8.20;99.90;;;;;;5032080;28;20025;-50
2022/12/02 04:00:40;;;;;;;28.50;13.43;;;;;;;;;;5031985;28;20557;-45
2022/12/02 04:03:06;;;;;;;31.92;14.20;;;8.10;99.90;;;;;;5031986;28;20069;-55
2022/12/02 04:05:32;;;;;;;34.03;14.32;;;6.80;99.90;;;;;;5031886;28;20057;-41
2022/12/02 04:07:57;;;;;;;36.22;14.52;;;6.80;99.90;;;;;;5031898;28;20033;-51
2022/12/02 04:10:23;;;;;;;27.58;14.23;;;8.70;99.90;;;;;;5031861;28;20021;-53
2022/12/02 04:12:49;;;;;;;30.95;13.48;;;8.00;99.90;;;;;;5031840;28;20083;-54
2022/12/02 04:15:14;;;;;;;30.85;14.15;;;7.10;99.90;;;;;;5031713;28;20037;-53
2022/12/02 04:17:40;;;;;;;31.77;13.10;;;7.10;99.90;;;;;;5031613;28;20061;-53
2022/12/02 04:20:07;;;;;;;31.42;14.73;;;6.70;99.90;;;;;;5032104;28;20040;-52
2022/12/02 04:22:33;;;;;;;33.75;15.15;;;8.20;99.90;;;;;;5031684;28;20609;-45
2022/12/02 04:25:01;;;;;;;33.08;14.77;;;7.30;99.90;;;;;;5031587;28;20108;-46
2022/12/02 04:27:27;;;;;;;33.67;14.50;;;4.90;99.90;;;;;;5031172;28;20029;-50
2022/12/02 04:29:52;;;;;;;34.78;14.82;;;6.20;99.90;;;;;;5031533;28;20029;-50
2022/12/02 04:32:18;;;;;;;31.30;14.45;;;;;;;;;;5030585;28;20362;-43
2022/12/02 04:34:44;;;;;;;28.92;13.10;;;6.50;99.90;;;;;;5031332;28;20112;-53
2022/12/02 04:37:09;;;;;;;29.27;13.70;;;6.60;99.90;;;;;;5031576;28;20116;-43
2022/12/02 04:39:35;;;;;;;34.22;13.30;;;8.20;99.90;;;;;;5031249;28;20546;-48
2022/12/02 04:42:01;;;;;;;28.42;13.18;;;7.60;99.90;;;;;;5031431;28;20041;-49
2022/12/02 04:44:26;;;;;;;28.60;12.48;;;4.40;99.90;;;;;;5031291;28;20030;-47
2022/12/02 04:46:52;;;;;;;27.33;11.55;;;7.30;99.90;;;;;;5031036;28;20021;-53
2022/12/02 04:49:18;;;;;;;30.52;12.98;;;7.20;99.90;;;;;;5031217;28;20043;-47
2022/12/02 04:51:43;;;;;;;30.38;12.95;;;6.70;99.90;;;;;;5031110;28;20025;-46
2022/12/02 04:54:09;;;;;;;22.95;11.20;;;;;;;;;;5030955;28;20180;-53
2022/12/02 04:56:35;;;;;;;26.27;12.32;;;7.70;99.90;;;;;;5030782;28;20045;-50
2022/12/02 04:59:01;;;;;;;27.58;12.07;;;3.80;99.90;;;;;;5030878;28;20018;-44
2022/12/02 05:01:27;;;;;;;28.80;11.73;;;3.70;99.90;;;;;;5030893;28;20076;-53
2022/12/02 05:03:52;;;;;;;25.55;11.55;;;6.50;99.90;;;;;;5030840;28;20421;-53
2022/12/02 05:06:18;;;;;;;30.30;12.80;;;5.40;99.90;;;;;;5030929;28;20029;-43
2022/12/02 05:08:43;;;;;;;31.50;13.77;;;6.40;99.90;;;;;;5030860;28;20018;-51
2022/12/02 05:11:09;;;;;;;33.42;13.00;;;3.70;99.90;;;;;;5030804;28;20036;-47
2022/12/02 05:13:35;;;;;;;28.05;12.05;;;;;;;;;;5030853;28;20411;-44
2022/12/02 05:16:00;;;;;;;30.25;12.15;;;5.50;99.90;;;;;;5030637;28;20057;-43
2022/12/02 05:18:26;;;;;;;28.90;13.27;;;5.50;99.90;;;;;;5030708;28;20469;-45
2022/12/02 05:20:52;;;;;;;28.17;12.25;;;4.90;99.90;;;;;;5030554;28;20025;-44
2022/12/02 05:23:17;;;;;;;29.42;11.55;;;6.10;99.90;;;;;;5030458;28;20029;-49
2022/12/02 05:25:43;;;;;;;30.58;12.40;;;3.70;99.90;;;;;;5030222;28;20110;-42
2022/12/02 05:28:08;;;;;;;24.65;12.00;;;6.10;99.90;;;;;;5030620;28;20018;-45
2022/12/02 05:30:34;;;;;;;28.35;12.32;;;5.30;99.90;;;;;;5030598;28;20073;-49
2022/12/02 05:33:00;;;;;;;28.77;12.35;;;3.30;99.90;;;;;;5030559;28;20026;-41
2022/12/02 05:35:26;;;;;;;31.90;13.18;;;;;;;;;;5030620;28;20060;-41
2022/12/02 05:37:51;;;;;;;28.27;12.00;;;6.90;99.90;;;;;;5030705;28;20480;-44
2022/12/02 05:40:17;;;;;;;28.80;12.48;;;;;;;;;;5030728;28;20108;-41
2022/12/02 05:42:43;;;;;;;27.52;12.23;;;6.00;99.90;;;;;;5030585;28;20403;-44
2022/12/02 05:45:18;;;;;;;30.25;13.43;;;6.00;99.90;;;;;;5033773;28;20052;-43
2022/12/02 05:47:57;;;;;;;31.23;13.00;;;6.80;99.90;;;;;;5034617;28;20031;-44
2022/12/02 05:50:22;;;;;;;27.80;12.18;;;6.10;99.90;;;;;;5034704;28;20028;-46
2022/12/02 05:52:48;;;;;;;31.23;13.57;;;7.60;99.90;;;;;;5034642;28;20033;-50
2022/12/02 05:55:19;;;;;;;29.10;12.98;;;6.50;99.90;;;;;;5033749;28;20416;-42
2022/12/02 05:57:45;;;;;;;30.20;12.05;;;6.70;99.90;;;;;;5034213;28;20037;-57
2022/12/02 06:00:16;;;;;;;29.23;12.45;;;4.50;99.90;;;;;;5034267;28;20476;-45
2022/12/02 06:02:49;;;;;;;27.63;11.88;;;7.00;99.90;;;;;;5034239;28;20044;-42
2022/12/02 06:05:20;;;;;;;26.60;11.30;;;7.20;99.90;;;;;;5034418;28;20025;-50
2022/12/02 06:07:47;;;;;;;23.65;11.00;;;6.60;99.90;;;;;;5034317;28;20021;-44
2022/12/02 06:10:28;;;;;;;26.17;10.88;;;5.90;99.90;;;;;;5034322;28;20164;-44
2022/12/02 06:13:17;;;;;;;24.08;10.48;;;6.70;99.90;;;;;;5034438;28;20038;-43
2022/12/02 06:15:42;;;;;;;22.98;10.57;;;5.70;99.90;;;;;;5034056;28;20036;-46
2022/12/02 06:18:17;;;;;;;25.77;9.88;;;6.30;99.90;;;;;;5033949;28;20022;-41
2022/12/02 06:20:45;;;;;;;24.95;10.30;;;6.70;99.90;;;;;;5033909;28;20036;-44
2022/12/02 06:23:16;;;;;;;24.67;10.90;;;6.10;99.90;;;;;;5033902;28;20021;-43
2022/12/02 06:25:44;;;;;;;22.13;10.20;;;5.80;99.90;;;;;;5033593;28;20030;-42
2022/12/02 06:28:29;;;;;;;25.50;10.02;;;6.00;99.90;;;;;;5033493;28;20030;-42
2022/12/02 06:31:04;;;;;;;28.45;11.20;;;5.80;99.90;;;;;;5033807;28;20029;-45
2022/12/02 06:33:32;;;;;;;23.05;10.68;;;6.40;99.90;;;;;;5033653;28;20113;-44
2022/12/02 06:36:02;;;;;;;24.23;11.20;;;5.80;99.90;;;;;;5033432;28;20404;-48
2022/12/02 06:38:35;;;;;;;23.85;9.88;;;6.10;99.90;;;;;;5033529;28;20041;-45
2022/12/02 06:41:13;;;;;;;25.23;10.48;;;6.20;99.90;;;;;;5033346;28;20526;-48
2022/12/02 06:43:39;;;;;;;25.20;10.32;;;6.60;99.90;;;;;;5033371;28;20028;-49
2022/12/02 06:46:18;;;;;;;24.13;10.68;;;5.90;99.90;;;;;;5033428;28;20029;-47
2022/12/02 06:48:43;;;;;;;24.20;10.35;;;5.90;99.90;;;;;;5033373;28;20531;-43
2022/12/02 06:51:17;;;;;;;24.23;10.50;;;6.70;99.90;;;;;;5033461;28;20025;-43
2022/12/02 06:53:44;;;;;;;20.13;9.65;;;7.30;99.90;;;;;;5033147;28;20055;-42
2022/12/02 06:56:15;;;;;;;26.67;9.85;;;3.60;99.90;;;;;;5032029;28;20041;-47
2022/12/02 06:58:48;;;;;;;25.10;10.30;;;6.50;99.90;;;;;;5033106;28;20033;-43
2022/12/02 07:01:37;;;;;;;23.90;9.93;;;5.80;99.90;;;;;;5033340;28;20025;-43
2022/12/02 07:04:08;;;;;;;19.52;9.75;;;3.50;99.90;;;;;;5033108;28;20120;-49
2022/12/02 07:06:43;;;;;;;25.90;10.40;;;5.70;99.90;;;;;;5033160;28;20028;-43
2022/12/02 07:09:17;;;;;;;28.10;11.77;;;6.50;99.90;;;;;;5033005;28;21571;-41
2022/12/02 07:11:54;;;;;;;23.40;8.77;;;6.30;99.90;;;;;;5033187;28;20028;-41
2022/12/02 07:14:46;;;;;;;22.38;10.02;;;6.80;99.90;;;;;;5032954;28;20029;-40
2022/12/02 07:17:37;;;;;;;22.83;10.10;;;5.90;99.90;;;;;;5032967;28;20040;-45
2022/12/02 07:20:06;;;;;;;24.83;9.75;;;6.50;99.90;;;;;;5032794;28;20079;-48
2022/12/02 07:22:37;;;;;;;22.65;9.40;;;7.30;99.90;;;;;;5032632;28;20025;-43
2022/12/02 07:25:06;;;;;;;20.92;10.00;;;5.10;99.90;;;;;;5032321;28;20508;-44
2022/12/02 07:27:36;;;;;;;20.90;10.38;;;5.80;99.90;;;;;;5035996;28;20087;-41
2022/12/02 07:30:17;;;;;;;20.95;9.35;;;6.60;99.90;;;;;;5032260;28;20025;-45
2022/12/02 07:32:42;;;;;;;20.92;9.23;;;3.60;99.90;;;;;;5048401;28;20036;-45
2022/12/02 07:35:08;;;;;;;20.45;9.10;;;5.90;99.90;;;;;;5046992;28;20430;-49
2022/12/02 07:37:33;;;;;;;19.50;8.80;;;6.50;99.90;;;;;;5039472;28;20057;-44
2022/12/02 07:39:59;;;;;;;19.20;9.00;;;6.60;99.90;;;;;;5041392;28;20383;-43
2022/12/02 07:42:24;;;;;;;22.40;9.65;;;5.90;99.90;;;;;;5036368;28;20057;-41
2022/12/02 07:44:50;;;;;;;24.05;10.35;;;6.20;99.90;;;;;;5032101;28;20044;-42
2022/12/02 07:47:16;;;;;;;23.92;10.43;;;5.80;99.90;;;;;;5040934;28;20034;-41
2022/12/02 07:49:41;;;;;;;23.52;9.52;;;5.90;99.90;;;;;;5047103;28;20506;-43
2022/12/02 07:52:07;;;;;;;23.02;9.73;;;6.00;99.90;;;;;;5050082;28;20029;-45
2022/12/02 07:54:32;;;;;;;25.15;9.32;;;5.50;99.90;;;;;;5045022;28;20136;-48
2022/12/02 07:56:58;;;;;;;22.30;9.73;;;5.90;99.90;;;;;;5044493;28;20055;-52
2022/12/02 07:59:24;;;;;;;23.17;10.23;;;;;;;;;;5048393;28;20025;-42
2022/12/02 08:01:50;;;;;;;21.58;9.25;;;6.50;99.90;;;;;;5038260;28;20036;-50
2022/12/02 08:04:15;;;;;;;22.15;9.00;;;8.00;99.90;;;;;;5031540;28;20021;-52
2022/12/02 08:06:41;;;;;;;22.17;8.70;;;5.70;99.90;;;;;;5031499;28;20022;-44
2022/12/02 08:09:08;;;;;;;21.65;9.13;;;7.90;99.90;;;;;;5043347;28;20025;-41
2022/12/02 08:11:33;;;;;;;19.27;9.23;;;6.80;99.90;;;;;;5049971;28;20043;-47
2022/12/02 08:13:59;;;;;;;21.60;9.52;;;7.00;99.90;;;;;;5043455;28;20032;-41
2022/12/02 08:16:25;;;;;;;19.80;9.27;;;;;;;;;;5036949;28;20096;-40
2022/12/02 08:18:50;;;;;;;19.77;9.18;;;7.30;99.90;;;;;;5047450;28;20021;-42
2022/12/02 08:21:16;;;;;;;18.25;8.82;;;6.10;99.90;;;;;;5037285;28;20075;-42
2022/12/02 08:23:42;;;;;;;19.67;8.95;;;6.20;99.90;;;;;;5033144;28;20040;-42
2022/12/02 08:26:07;;;;;;;20.27;9.70;;;6.70;99.90;;;;;;5040965;28;20357;-48
2022/12/02 08:28:33;;;;;;;21.48;9.25;;;6.30;99.90;;;;;;5042281;28;20025;-49
2022/12/02 08:30:59;;;;;;;19.15;8.55;;;6.30;99.90;;;;;;5031048;28;20171;-53
2022/12/02 08:33:24;;;;;;;22.80;8.98;;;6.30;99.90;;;;;;5034686;28;20029;-51
2022/12/02 08:35:50;;;;;;;18.80;9.40;;;6.30;99.90;;;;;;5037318;28;20037;-56
2022/12/02 08:38:15;;;;;;;21.15;9.70;;;6.30;99.90;;;;;;5032443;28;20506;-42
2022/12/02 08:40:41;;;;;;;18.35;9.13;;;8.70;99.90;;;;;;5048183;28;20036;-52
2022/12/02 08:43:07;;;;;;;20.52;9.40;;;6.30;99.90;;;;;;5041517;28;20024;-55
2022/12/02 08:45:32;;;;;;;25.67;8.90;;;6.90;99.90;;;;;;5030876;28;20028;-47
2022/12/02 08:47:58;;;;;;;22.73;9.30;;;6.30;99.90;;;;;;5030421;28;20112;-46
2022/12/02 08:50:24;;;;;;;21.15;9.85;;;6.60;99.90;;;;;;5029352;28;20026;-42
2022/12/02 08:52:50;;;;;;;17.73;8.55;;;6.80;99.90;;;;;;5030543;28;20041;-43
2022/12/02 08:55:15;;;;;;;20.77;10.05;;;6.40;99.90;;;;;;5029514;28;20503;-44
2022/12/02 08:57:41;;;;;;;20.02;9.30;;;6.40;99.90;;;;;;5029958;28;20033;-42
2022/12/02 09:00:08;;;;;;;21.67;10.10;;;6.40;99.90;;;;;;5030110;28;20026;-43
2022/12/02 09:02:34;;;;;;;21.08;10.15;;;6.40;99.90;;;;;;5029985;28;20028;-45
2022/12/02 09:05:00;;;;;;;20.58;8.98;;;6.30;99.90;;;;;;5030759;28;20051;-45
2022/12/02 09:07:26;;;;;;;20.52;9.90;;;6.40;99.90;;;;;;5025153;28;20049;-41
2022/12/02 09:09:52;;;;;;;19.27;9.32;;;6.50;99.90;;;;;;5028686;28;20095;-40
2022/12/02 09:12:17;;;;;;;21.90;9.30;;;6.50;99.90;;;;;;5025135;28;20030;-46
2022/12/02 09:14:43;;;;;;;21.88;10.27;;;6.50;99.90;;;;;;5011925;28;20113;-41
2022/12/02 09:17:09;;;;;;;19.60;9.65;;;;;;;;;;5010832;28;20080;-41
2022/12/02 09:19:35;;;;;;;22.52;9.75;;;5.90;99.90;;;;;;5010867;28;20563;-41
2022/12/02 09:22:00;;;;;;;21.65;9.98;;;6.60;99.90;;;;;;5013628;28;20037;-43
2022/12/02 09:24:26;;;;;;;22.10;10.93;;;6.70;99.90;;;;;;5015237;28;20014;-41
2022/12/02 09:26:51;;;;;;;21.73;10.40;;;6.60;99.90;;;;;;5016361;28;20018;-41
2022/12/02 09:29:17;;;;;;;22.90;10.82;;;6.80;99.90;;;;;;5028588;28;20481;-40
2022/12/02 09:31:43;;;;;;;21.10;10.88;;;6.80;99.90;;;;;;5034930;28;20028;-39
2022/12/02 09:34:08;;;;;;;22.27;10.05;;;7.00;99.90;;;;;;5032947;28;20033;-49
2022/12/02 09:36:34;;;;;;;20.73;10.80;;;8.50;99.90;;;;;;5024282;28;20030;-43
2022/12/02 09:39:00;;;;;;;20.15;10.40;;;7.00;99.90;;;;;;5031129;28;20481;-51
2022/12/02 09:41:26;;;;;;;22.52;10.10;;;7.00;99.90;;;;;;5033184;28;20107;-43
2022/12/02 09:43:53;;;;;;;21.65;11.13;;;7.10;99.90;;;;;;5035452;28;20385;-44
2022/12/02 09:46:18;;;;;;;22.77;10.43;;;7.20;99.90;;;;;;5030172;28;20025;-46
2022/12/02 09:48:44;;;;;;;18.52;10.27;;;7.10;99.90;;;;;;5027011;28;20022;-49
2022/12/02 09:51:10;;;;;;;19.20;10.10;;;7.20;99.90;;;;;;5029033;28;20032;-39
2022/12/02 09:53:38;;;;;;;22.00;10.77;;;7.20;99.90;;;;;;5026472;28;20026;-40
2022/12/02 09:56:04;;;;;;;20.98;10.75;;;6.90;99.90;;;;;;5028414;28;20113;-43
2022/12/02 09:58:30;;;;;;;23.42;10.55;;;7.10;99.90;;;;;;5030104;28;20464;-50
2022/12/02 10:00:56;;;;;;;18.23;9.90;;;7.30;99.90;;;;;;5029592;28;20033;-40
2022/12/02 10:03:25;;;;;;;20.88;10.65;;;7.30;99.90;;;;;;5018976;28;20688;-50
2022/12/02 10:05:51;;;;;;;19.67;10.13;;;7.30;99.90;;;;;;5028255;28;20026;-42
2022/12/02 10:08:27;;;;;;;17.50;9.45;;;7.40;99.90;;;;;;5029587;28;20036;-46
2022/12/02 10:10:55;;;;;;;18.73;9.77;;;7.70;99.90;;;;;;5029940;28;20017;-42
2022/12/02 10:13:23;;;;;;;19.30;9.23;;;7.80;99.90;;;;;;5030165;28;20517;-42
2022/12/02 10:15:49;;;;;;;19.90;9.90;;;7.90;99.90;;;;;;5030035;28;20045;-43
2022/12/02 10:18:22;;;;;;;21.17;9.55;;;7.90;99.90;;;;;;5030227;28;20017;-46
2022/12/02 10:20:49;;;;;;;18.92;9.73;;;8.00;99.90;;;;;;5030101;28;20041;-41
2022/12/02 10:23:16;;;;;;;19.15;9.75;;;8.00;99.90;;;;;;5029751;28;20094;-43
2022/12/02 10:25:45;;;;;;;17.02;9.43;;;8.10;99.90;;;;;;5036782;28;20033;-42
2022/12/02 10:28:38;;;;;;;18.88;9.57;;;8.20;99.90;;;;;;5038736;28;20414;-43
2022/12/02 10:31:14;;;;;;;19.02;8.70;;;8.20;99.90;;;;;;5030043;28;20034;-41
2022/12/02 10:33:51;;;;;;;17.05;9.27;;;8.20;99.90;;;;;;5047001;28;20051;-41
2022/12/02 10:36:34;;;;;;;18.67;8.90;;;8.20;99.90;;;;;;5051609;28;20036;-49
2022/12/02 10:39:15;;;;;;;18.27;9.27;;;8.10;99.90;;;;;;5052347;28;20907;-41
2022/12/02 10:41:40;;;;;;;18.40;9.25;;;8.00;99.90;;;;;;5046971;28;20820;-40
2022/12/02 10:44:13;;;;;;;17.13;9.45;;;8.50;99.90;;;;;;5042190;28;20120;-45
2022/12/02 10:46:39;;;;;;;20.27;9.02;;;7.90;99.90;;;;;;5047749;28;20029;-40
2022/12/02 10:49:26;;;;;;;19.70;10.07;;;8.00;99.90;;;;;;5049545;28;20032;-41
2022/12/02 10:51:53;;;;;;;18.88;10.07;;;8.20;99.90;;;;;;5050007;28;20049;-47
2022/12/02 10:54:27;;;;;;;20.23;9.07;;;7.80;99.90;;;;;;5050966;28;20063;-42
2022/12/02 10:56:58;;;;;;;18.70;9.77;;;9.00;99.90;;;;;;5049256;28;20123;-40
2022/12/02 10:59:24;;;;;;;17.73;9.05;;;9.40;99.90;;;;;;5038562;28;20022;-41
2022/12/02 11:01:50;;;;;;;15.60;8.60;;;9.60;99.90;;;;;;5037190;28;20500;-41
2022/12/02 11:04:16;;;;;;;17.63;8.95;;;9.80;99.90;;;;;;5042675;28;20093;-41
2022/12/02 11:06:43;;;;;;;19.98;9.15;;;10.00;99.90;;;;;;5041349;28;20060;-47
2022/12/02 11:09:35;;;;;;;17.48;9.25;;;10.00;99.90;;;;;;5038299;28;20025;-50
2022/12/02 11:12:29;;;;;;;16.95;9.80;;;10.10;99.90;;;;;;5029707;28;20087;-52
2022/12/02 11:14:55;;;;;;;19.52;9.50;;;10.10;99.90;;;;;;5036333;28;20017;-50
2022/12/02 11:17:51;;;;;;;17.13;9.43;;;9.90;99.90;;;;;;5047588;28;20032;-50
2022/12/02 11:20:31;;;;;;;15.85;8.70;;;9.50;99.90;;;;;;5028441;28;20032;-39
2022/12/02 11:23:00;;;;;;;19.23;9.27;;;9.30;99.90;;;;;;5033527;28;20037;-40
2022/12/02 11:25:46;;;;;;;18.73;9.38;;;9.20;99.90;;;;;;5037275;28;20500;-40
2022/12/02 11:28:17;;;;;;;19.88;9.63;;;8.80;99.90;;;;;;5066181;28;20463;-40
2022/12/02 11:30:45;;;;;;;18.33;9.82;;;8.80;99.90;;;;;;5037358;28;20029;-40
2022/12/02 11:33:31;;;;;;;24.17;10.85;;;8.70;99.90;;;;;;5036525;28;20147;-40
2022/12/02 11:36:13;;;;;;;18.98;9.90;;;8.60;99.90;;;;;;5039829;28;20045;-39
2022/12/02 11:38:46;;;;;;;17.95;9.52;;;8.70;99.90;;;;;;5039109;28;20116;-40
2022/12/02 11:41:13;;;;;;;21.90;10.15;;;8.70;99.90;;;;;;5036182;28;20113;-40
2022/12/02 11:43:43;;;;;;;20.00;10.38;;;8.80;99.90;;;;;;5036766;28;20028;-40
2022/12/02 11:46:09;;;;;;;16.45;8.85;;;7.50;99.90;;;;;;5034380;28;20144;-40
2022/12/02 11:48:46;;;;;;;18.35;8.80;;;8.70;99.90;;;;;;5030811;28;20557;-39
2022/12/02 11:51:39;;;;;;;18.73;9.30;;;8.90;99.90;;;;;;5041018;28;20037;-39
2022/12/02 11:54:13;;;;;;;17.67;8.90;;;9.30;99.90;;;;;;5031090;28;20073;-40
2022/12/02 11:56:39;;;;;;;23.10;9.43;;;8.90;99.90;;;;;;5035335;28;20040;-41
2022/12/02 11:59:19;;;;;;;19.17;9.27;;;9.00;99.90;;;;;;5042432;28;20110;-44
2022/12/02 12:01:45;;;;;;;18.92;9.73;;;9.10;99.90;;;;;;5038998;28;20030;-42
2022/12/02 12:04:24;;;;;;;17.48;9.18;;;9.40;99.90;;;;;;5033936;28;20021;-41
2022/12/02 12:06:59;;;;;;;19.92;9.52;;;9.30;99.90;;;;;;5042983;28;20013;-40
2022/12/02 12:09:29;;;;;;;17.20;8.90;;;9.20;99.90;;;;;;5032567;28;20036;-43
2022/12/02 12:12:17;;;;;;;18.15;9.10;;;9.10;99.90;;;;;;5048137;28;20031;-41
2022/12/02 12:14:58;;;;;;;16.60;9.00;;;8.80;99.90;;;;;;5047113;28;20036;-40
2022/12/02 12:17:42;;;;;;;17.98;8.80;;;8.90;99.90;;;;;;5048955;28;20036;-41
2022/12/02 12:20:21;;;;;;;19.67;9.32;;;8.00;99.90;;;;;;5035866;28;20076;-39
2022/12/02 12:22:47;;;;;;;19.63;9.30;;;8.30;99.90;;;;;;5041399;28;20025;-42
2022/12/02 12:25:47;;;;;;;20.95;10.05;;;8.40;99.90;;;;;;5048690;28;20028;-41
2022/12/02 12:28:51;;;;;;;18.95;9.45;;;8.60;99.90;;;;;;5043826;28;20412;-40
2022/12/02 12:31:17;;;;;;;19.65;10.10;;;9.10;99.90;;;;;;5037186;28;20530;-47
2022/12/02 12:33:45;;;;;;;18.98;9.50;;;8.90;99.90;;;;;;5043240;28;20108;-42
2022/12/02 12:36:16;;;;;;;19.60;9.32;;;10.70;99.90;;;;;;5047249;28;20057;-51
2022/12/02 12:38:45;;;;;;;17.38;8.68;;;12.90;99.90;;;;;;5042367;28;20347;-42
2022/12/02 12:41:10;;;;;;;15.75;7.55;;;13.60;99.90;;;;;;5043381;28;20028;-41
2022/12/02 12:43:36;;;;;;;15.32;7.78;;;14.60;99.90;;;;;;5042063;28;20028;-40
2022/12/02 12:46:05;;;;;;;16.52;7.93;;;15.60;97.90;;;;;;5036744;28;20053;-50
2022/12/02 12:48:33;;;;;;;16.33;7.93;;;17.60;99.60;;;;;;5027524;28;20028;-42
2022/12/02 12:51:00;;;;;;;13.27;7.03;;;12.50;97.40;;;;;;5027019;28;20076;-44
2022/12/02 12:53:26;;;;;;;15.82;8.18;;;13.70;97.80;;;;;;5042164;28;20040;-47
2022/12/02 12:55:51;;;;;;;13.57;8.05;;;12.70;99.70;;;;;;5044922;28;20048;-46